createdAt,value
2018-04-13T00:00:25.141Z,0
2018-04-13T00:01:05.671Z,0
2018-04-13T00:01:46.176Z,0
2018-04-13T00:02:26.740Z,0
2018-04-13T00:03:07.258Z,0
2018-04-13T00:03:47.778Z,0
2018-04-13T00:04:28.296Z,0
2018-04-13T00:05:08.818Z,0
2018-04-13T00:05:49.336Z,0
2018-04-13T00:06:29.855Z,0
2018-04-13T00:07:10.430Z,0
2018-04-13T00:07:50.957Z,0
2018-04-13T00:08:31.478Z,0
2018-04-13T00:09:12.007Z,0
2018-04-13T00:09:52.521Z,0
2018-04-13T00:10:33.037Z,0
2018-04-13T00:11:13.551Z,0
2018-04-13T00:11:54.067Z,0
2018-04-13T00:12:34.586Z,0
2018-04-13T00:13:15.105Z,0
2018-04-13T00:13:55.616Z,0
2018-04-13T00:14:36.146Z,0
2018-04-13T00:15:16.651Z,0
2018-04-13T00:15:57.196Z,0
2018-04-13T00:16:37.708Z,0
2018-04-13T00:17:18.227Z,0
2018-04-13T00:17:58.754Z,0
2018-04-13T00:18:39.266Z,0
2018-04-13T00:19:19.785Z,0
2018-04-13T00:20:00.329Z,0
2018-04-13T00:20:40.849Z,0
2018-04-13T00:21:21.360Z,0
2018-04-13T00:22:01.881Z,0
2018-04-13T00:22:42.399Z,0
2018-04-13T00:23:22.910Z,0
2018-04-13T00:24:03.434Z,0
2018-04-13T00:24:43.942Z,0
2018-04-13T00:25:24.459Z,0
2018-04-13T00:26:04.984Z,0
2018-04-13T00:26:45.530Z,0
2018-04-13T00:27:26.033Z,0
2018-04-13T00:28:06.548Z,0
2018-04-13T00:28:47.065Z,0
2018-04-13T00:29:27.576Z,0
2018-04-13T00:30:08.094Z,0
2018-04-13T00:30:48.613Z,0
2018-04-13T00:31:29.136Z,0
2018-04-13T00:32:09.655Z,0
2018-04-13T00:32:50.192Z,0
2018-04-13T00:33:30.708Z,0
2018-04-13T00:34:11.223Z,0
2018-04-13T00:34:51.738Z,0
2018-04-13T00:35:32.246Z,0
2018-04-13T00:36:12.766Z,0
2018-04-13T00:36:53.282Z,0
2018-04-13T00:37:33.789Z,0
2018-04-13T00:38:14.302Z,0
2018-04-13T00:38:54.817Z,0
2018-04-13T00:39:35.340Z,0
2018-04-13T00:40:15.855Z,0
2018-04-13T00:40:56.377Z,0
2018-04-13T00:41:36.895Z,0
2018-04-13T00:42:17.419Z,0
2018-04-13T00:42:57.943Z,0
2018-04-13T00:43:38.464Z,0
2018-04-13T00:44:18.983Z,0
2018-04-13T00:44:59.509Z,0
2018-04-13T00:45:40.032Z,0
2018-04-13T00:46:20.539Z,0
2018-04-13T00:47:01.054Z,0
2018-04-13T00:47:41.579Z,0
2018-04-13T00:48:22.099Z,0
2018-04-13T00:49:02.625Z,0
2018-04-13T00:49:43.136Z,0
2018-04-13T00:50:23.655Z,0
2018-04-13T00:51:04.178Z,0
2018-04-13T00:51:44.692Z,0
2018-04-13T00:52:25.234Z,0
2018-04-13T00:53:05.748Z,0
2018-04-13T00:53:46.274Z,0
2018-04-13T00:54:26.787Z,0
2018-04-13T00:55:07.314Z,0
2018-04-13T00:55:47.829Z,0
2018-04-13T00:56:28.351Z,0
2018-04-13T00:57:08.864Z,0
2018-04-13T00:57:49.393Z,0
2018-04-13T00:58:29.910Z,0
2018-04-13T00:59:10.438Z,0
2018-04-13T00:59:50.952Z,0
2018-04-13T01:00:31.482Z,0
2018-04-13T01:01:12.006Z,0
2018-04-13T01:01:52.522Z,0
2018-04-13T01:02:33.052Z,0
2018-04-13T01:03:13.556Z,0
2018-04-13T01:03:54.073Z,0
2018-04-13T01:04:34.595Z,0
2018-04-13T01:05:15.115Z,0
2018-04-13T01:05:55.670Z,0
2018-04-13T01:06:36.182Z,0
2018-04-13T01:07:16.713Z,0
2018-04-13T01:07:57.236Z,0
2018-04-13T01:08:37.800Z,0
2018-04-13T01:09:18.272Z,0
2018-04-13T01:09:58.792Z,0
2018-04-13T01:10:39.313Z,0
2018-04-13T01:11:19.834Z,0
2018-04-13T01:12:00.347Z,0
2018-04-13T01:12:40.874Z,0
2018-04-13T01:13:21.395Z,0
2018-04-13T01:14:01.909Z,0
2018-04-13T01:14:42.428Z,0
2018-04-13T01:15:22.935Z,0
2018-04-13T01:16:03.454Z,0
2018-04-13T01:16:43.966Z,0
2018-04-13T01:17:24.491Z,0
2018-04-13T01:18:05.008Z,0
2018-04-13T01:18:45.526Z,0
2018-04-13T01:19:26.045Z,0
2018-04-13T01:20:06.566Z,0
2018-04-13T01:20:47.113Z,0
2018-04-13T01:21:27.634Z,0
2018-04-13T01:22:08.151Z,0
2018-04-13T01:22:48.675Z,0
2018-04-13T01:23:29.185Z,0
2018-04-13T01:24:09.726Z,0
2018-04-13T01:24:50.243Z,0
2018-04-13T01:25:30.769Z,0
2018-04-13T01:26:11.290Z,0
2018-04-13T01:26:51.813Z,0
2018-04-13T01:27:32.330Z,0
2018-04-13T01:28:12.848Z,0
2018-04-13T01:28:53.357Z,0
2018-04-13T01:29:33.871Z,0
2018-04-13T01:30:14.444Z,0
2018-04-13T01:30:54.964Z,0
2018-04-13T01:31:35.483Z,0
2018-04-13T01:32:16.004Z,0
2018-04-13T01:32:56.528Z,0
2018-04-13T01:33:37.050Z,0
2018-04-13T01:34:17.563Z,0
2018-04-13T01:34:58.085Z,0
2018-04-13T01:35:38.599Z,0
2018-04-13T01:36:19.130Z,0
2018-04-13T01:36:59.647Z,0
2018-04-13T01:37:40.163Z,0
2018-04-13T01:38:20.684Z,0
2018-04-13T01:39:01.193Z,0
2018-04-13T01:39:41.714Z,0
2018-04-13T01:40:22.222Z,0
2018-04-13T01:41:02.760Z,0
2018-04-13T01:41:43.272Z,0
2018-04-13T01:42:23.790Z,0
2018-04-13T01:43:04.312Z,0
2018-04-13T01:43:44.829Z,0
2018-04-13T01:44:25.347Z,0
2018-04-13T01:45:05.885Z,0
2018-04-13T01:45:46.416Z,0
2018-04-13T01:46:26.926Z,0
2018-04-13T01:47:07.444Z,0
2018-04-13T01:47:47.968Z,0
2018-04-13T01:48:28.489Z,0
2018-04-13T01:49:09.008Z,0
2018-04-13T01:49:49.519Z,0
2018-04-13T01:50:30.037Z,0
2018-04-13T01:51:10.543Z,0
2018-04-13T01:51:51.070Z,0
2018-04-13T01:52:31.589Z,0
2018-04-13T01:53:12.111Z,0
2018-04-13T01:53:52.631Z,0
2018-04-13T01:54:33.142Z,0
2018-04-13T01:55:13.661Z,0
2018-04-13T01:55:54.175Z,0
2018-04-13T01:56:34.687Z,0
2018-04-13T01:57:15.204Z,0
2018-04-13T01:57:55.723Z,0
2018-04-13T01:58:36.245Z,0
2018-04-13T01:59:16.756Z,0
2018-04-13T01:59:57.287Z,0
2018-04-13T02:00:37.819Z,0
2018-04-13T02:01:18.331Z,0
2018-04-13T02:01:58.851Z,0
2018-04-13T02:02:39.364Z,0
2018-04-13T02:03:19.885Z,0
2018-04-13T02:04:00.402Z,0
2018-04-13T02:04:40.914Z,0
2018-04-13T02:05:21.461Z,0
2018-04-13T02:06:01.968Z,0
2018-04-13T02:06:42.487Z,0
2018-04-13T02:07:22.991Z,0
2018-04-13T02:08:03.514Z,0
2018-04-13T02:08:44.027Z,0
2018-04-13T02:09:24.548Z,0
2018-04-13T02:10:05.070Z,0
2018-04-13T02:10:45.588Z,0
2018-04-13T02:11:26.110Z,0
2018-04-13T02:12:06.609Z,0
2018-04-13T02:12:47.176Z,0
2018-04-13T02:13:27.695Z,0
2018-04-13T02:14:08.204Z,0
2018-04-13T02:14:48.727Z,0
2018-04-13T02:15:29.244Z,0
2018-04-13T02:16:09.766Z,0
2018-04-13T02:16:50.283Z,0
2018-04-13T02:17:30.804Z,0
2018-04-13T02:18:11.320Z,0
2018-04-13T02:18:51.834Z,0
2018-04-13T02:19:32.355Z,0
2018-04-13T02:20:12.861Z,0
2018-04-13T02:20:53.379Z,0
2018-04-13T02:21:33.898Z,0
2018-04-13T02:22:14.426Z,0
2018-04-13T02:22:54.943Z,0
2018-04-13T02:23:35.462Z,0
2018-04-13T02:24:15.976Z,0
2018-04-13T02:24:56.500Z,0
2018-04-13T02:25:37.021Z,0
2018-04-13T02:26:17.543Z,0
2018-04-13T02:26:58.062Z,0
2018-04-13T02:27:38.590Z,0
2018-04-13T02:28:19.107Z,0
2018-04-13T02:28:59.623Z,0
2018-04-13T02:29:40.150Z,0
2018-04-13T02:30:20.674Z,0
2018-04-13T02:31:01.192Z,0
2018-04-13T02:31:41.695Z,0
2018-04-13T02:32:22.215Z,0
2018-04-13T02:33:02.734Z,0
2018-04-13T02:33:43.259Z,0
2018-04-13T02:34:23.944Z,0
2018-04-13T02:35:04.296Z,0
2018-04-13T02:35:44.831Z,0
2018-04-13T02:36:25.334Z,0
2018-04-13T02:37:05.851Z,0
2018-04-13T02:37:46.367Z,0
2018-04-13T02:38:26.876Z,0
2018-04-13T02:39:07.399Z,0
2018-04-13T02:39:47.909Z,0
2018-04-13T02:40:28.429Z,0
2018-04-13T02:41:08.943Z,0
2018-04-13T02:41:49.471Z,0
2018-04-13T02:42:29.997Z,0
2018-04-13T02:43:10.519Z,0
2018-04-13T02:43:51.037Z,0
2018-04-13T02:44:31.542Z,0
2018-04-13T02:45:12.064Z,0
2018-04-13T02:45:52.585Z,0
2018-04-13T02:46:33.111Z,0
2018-04-13T02:47:13.633Z,0
2018-04-13T02:47:54.144Z,0
2018-04-13T02:48:34.665Z,0
2018-04-13T02:49:15.176Z,0
2018-04-13T02:49:55.683Z,0
2018-04-13T02:50:36.199Z,0
2018-04-13T02:51:16.722Z,0
2018-04-13T02:51:57.252Z,0
2018-04-13T02:52:37.785Z,0
2018-04-13T02:53:18.307Z,0
2018-04-13T02:53:58.829Z,0
2018-04-13T02:54:39.350Z,0
2018-04-13T02:55:19.872Z,0
2018-04-13T02:56:00.387Z,0
2018-04-13T02:56:40.905Z,0
2018-04-13T02:57:21.428Z,0
2018-04-13T02:58:01.940Z,0
2018-04-13T02:58:42.470Z,0
2018-04-13T02:59:22.976Z,0
2018-04-13T03:00:03.523Z,0
2018-04-13T03:00:44.033Z,0
2018-04-13T03:01:24.555Z,0
2018-04-13T03:02:05.076Z,0
2018-04-13T03:02:45.590Z,0
2018-04-13T03:03:26.108Z,0
2018-04-13T03:04:06.621Z,0
2018-04-13T03:04:47.136Z,0
2018-04-13T03:05:27.653Z,0
2018-04-13T03:06:08.175Z,0
2018-04-13T03:06:48.697Z,0
2018-04-13T03:07:29.264Z,0
2018-04-13T03:08:09.738Z,0
2018-04-13T03:08:50.274Z,0
2018-04-13T03:09:30.784Z,0
2018-04-13T03:10:11.317Z,0
2018-04-13T03:10:51.846Z,0
2018-04-13T03:11:32.390Z,0
2018-04-13T03:12:12.888Z,0
2018-04-13T03:12:53.410Z,0
2018-04-13T03:13:33.954Z,0
2018-04-13T03:14:14.463Z,0
2018-04-13T03:14:54.972Z,0
2018-04-13T03:15:35.495Z,0
2018-04-13T03:16:16.013Z,0
2018-04-13T03:16:56.536Z,0
2018-04-13T03:17:37.055Z,0
2018-04-13T03:18:17.567Z,0
2018-04-13T03:18:58.084Z,0
2018-04-13T03:19:38.608Z,0
2018-04-13T03:20:19.145Z,0
2018-04-13T03:20:59.674Z,0
2018-04-13T03:21:40.192Z,0
2018-04-13T03:22:20.713Z,0
2018-04-13T03:23:01.222Z,0
2018-04-13T03:23:41.751Z,0
2018-04-13T03:24:22.274Z,0
2018-04-13T03:25:02.795Z,0
2018-04-13T03:25:43.301Z,0
2018-04-13T03:26:23.823Z,0
2018-04-13T03:27:04.340Z,0
2018-04-13T03:27:44.847Z,0
2018-04-13T03:28:25.369Z,0
2018-04-13T03:29:05.883Z,0
2018-04-13T03:29:46.407Z,0
2018-04-13T03:30:26.935Z,0
2018-04-13T03:31:07.458Z,0
2018-04-13T03:31:47.966Z,0
2018-04-13T03:32:28.488Z,0
2018-04-13T03:33:09.005Z,0
2018-04-13T03:33:49.529Z,0
2018-04-13T03:34:30.044Z,0
2018-04-13T03:35:10.570Z,0
2018-04-13T03:35:51.071Z,0
2018-04-13T03:36:31.582Z,0
2018-04-13T03:37:12.098Z,0
2018-04-13T03:37:52.603Z,0
2018-04-13T03:38:33.141Z,0
2018-04-13T03:39:13.667Z,0
2018-04-13T03:39:54.168Z,0
2018-04-13T03:40:34.698Z,0
2018-04-13T03:41:15.222Z,0
2018-04-13T03:41:55.741Z,0
2018-04-13T03:42:36.261Z,0
2018-04-13T03:43:16.793Z,0
2018-04-13T03:43:57.310Z,0
2018-04-13T03:44:37.824Z,0
2018-04-13T03:45:18.345Z,0
2018-04-13T03:45:58.861Z,0
2018-04-13T03:46:39.369Z,0
2018-04-13T03:47:19.886Z,0
2018-04-13T03:48:00.403Z,0
2018-04-13T03:48:40.920Z,0
2018-04-13T03:49:21.435Z,0
2018-04-13T03:50:01.959Z,0
2018-04-13T03:50:42.486Z,0
2018-04-13T03:51:23.010Z,0
2018-04-13T03:52:03.522Z,0
2018-04-13T03:52:44.050Z,0
2018-04-13T03:53:24.553Z,0
2018-04-13T03:54:05.087Z,0
2018-04-13T03:54:45.605Z,0
2018-04-13T03:55:26.121Z,0
2018-04-13T03:56:06.635Z,0
2018-04-13T03:56:47.161Z,0
2018-04-13T03:57:27.691Z,0
2018-04-13T03:58:08.210Z,0
2018-04-13T03:58:48.733Z,0
2018-04-13T03:59:29.247Z,0
2018-04-13T04:00:09.767Z,0
2018-04-13T04:00:50.300Z,0
2018-04-13T04:01:30.825Z,0
2018-04-13T04:02:11.394Z,0
2018-04-13T04:02:51.853Z,0
2018-04-13T04:03:32.399Z,0
2018-04-13T04:04:12.932Z,0
2018-04-13T04:04:53.448Z,0
2018-04-13T04:05:33.975Z,0
2018-04-13T04:06:14.498Z,0
2018-04-13T04:06:55.004Z,0
2018-04-13T04:07:35.524Z,0
2018-04-13T04:08:16.048Z,0
2018-04-13T04:08:56.552Z,0
2018-04-13T04:09:37.061Z,0
2018-04-13T04:10:17.584Z,0
2018-04-13T04:10:58.111Z,0
2018-04-13T04:11:38.620Z,0
2018-04-13T04:12:19.140Z,0
2018-04-13T04:12:59.681Z,0
2018-04-13T04:13:40.215Z,0
2018-04-13T04:14:20.730Z,0
2018-04-13T04:15:01.247Z,0
2018-04-13T04:15:41.770Z,0
2018-04-13T04:16:22.276Z,0
2018-04-13T04:17:02.795Z,0
2018-04-13T04:17:43.309Z,0
2018-04-13T04:18:23.835Z,4
2018-04-13T04:19:04.352Z,4
2018-04-13T04:19:44.865Z,4
2018-04-13T04:20:25.385Z,0
2018-04-13T04:21:05.907Z,0
2018-04-13T04:21:46.428Z,0
2018-04-13T04:22:26.939Z,4
2018-04-13T04:23:07.444Z,4
2018-04-13T04:23:47.960Z,4
2018-04-13T04:24:28.476Z,0
2018-04-13T04:25:08.996Z,4
2018-04-13T04:25:49.522Z,4
2018-04-13T04:26:30.033Z,4
2018-04-13T04:27:10.555Z,8
2018-04-13T04:27:51.080Z,4
2018-04-13T04:28:31.599Z,4
2018-04-13T04:29:12.115Z,8
2018-04-13T04:29:52.645Z,8
2018-04-13T04:30:33.158Z,4
2018-04-13T04:31:13.677Z,8
2018-04-13T04:31:54.212Z,8
2018-04-13T04:32:34.734Z,12
2018-04-13T04:33:15.247Z,8
2018-04-13T04:33:55.770Z,8
2018-04-13T04:34:36.323Z,12
2018-04-13T04:35:16.801Z,12
2018-04-13T04:35:57.320Z,12
2018-04-13T04:36:37.842Z,12
2018-04-13T04:37:18.368Z,12
2018-04-13T04:37:58.917Z,12
2018-04-13T04:38:39.398Z,12
2018-04-13T04:39:19.910Z,12
2018-04-13T04:40:00.421Z,16
2018-04-13T04:40:40.942Z,16
2018-04-13T04:41:21.460Z,16
2018-04-13T04:42:01.974Z,16
2018-04-13T04:42:42.496Z,16
2018-04-13T04:43:23.011Z,12
2018-04-13T04:44:03.523Z,16
2018-04-13T04:44:44.087Z,16
2018-04-13T04:45:24.612Z,20
2018-04-13T04:46:05.117Z,16
2018-04-13T04:46:45.633Z,20
2018-04-13T04:47:26.161Z,16
2018-04-13T04:48:06.675Z,20
2018-04-13T04:48:47.194Z,20
2018-04-13T04:49:27.713Z,20
2018-04-13T04:50:08.224Z,24
2018-04-13T04:50:48.740Z,24
2018-04-13T04:51:29.263Z,20
2018-04-13T04:52:09.782Z,24
2018-04-13T04:52:50.289Z,24
2018-04-13T04:53:30.821Z,24
2018-04-13T04:54:11.341Z,28
2018-04-13T04:54:51.860Z,28
2018-04-13T04:55:32.384Z,28
2018-04-13T04:56:12.894Z,28
2018-04-13T04:56:53.411Z,32
2018-04-13T04:57:33.932Z,32
2018-04-13T04:58:14.453Z,36
2018-04-13T04:58:54.984Z,36
2018-04-13T04:59:35.501Z,40
2018-04-13T05:00:16.020Z,40
2018-04-13T05:00:56.577Z,40
2018-04-13T05:01:37.131Z,40
2018-04-13T05:02:17.652Z,44
2018-04-13T05:02:58.166Z,44
2018-04-13T05:03:38.683Z,44
2018-04-13T05:04:19.203Z,48
2018-04-13T05:04:59.730Z,52
2018-04-13T05:05:40.254Z,52
2018-04-13T05:06:20.755Z,56
2018-04-13T05:07:01.282Z,56
2018-04-13T05:07:41.804Z,56
2018-04-13T05:08:22.333Z,64
2018-04-13T05:09:02.845Z,64
2018-04-13T05:09:43.369Z,68
2018-04-13T05:10:23.880Z,68
2018-04-13T05:11:04.400Z,68
2018-04-13T05:11:44.918Z,72
2018-04-13T05:12:25.476Z,76
2018-04-13T05:13:05.972Z,76
2018-04-13T05:13:46.520Z,84
2018-04-13T05:14:27.044Z,84
2018-04-13T05:15:07.567Z,88
2018-04-13T05:15:48.089Z,92
2018-04-13T05:16:28.611Z,100
2018-04-13T05:17:09.133Z,96
2018-04-13T05:17:49.653Z,104
2018-04-13T05:18:30.172Z,108
2018-04-13T05:19:10.690Z,108
2018-04-13T05:19:51.212Z,116
2018-04-13T05:20:31.746Z,120
2018-04-13T05:21:12.270Z,120
2018-04-13T05:21:52.810Z,124
2018-04-13T05:22:33.358Z,128
2018-04-13T05:23:13.877Z,128
2018-04-13T05:23:54.405Z,132
2018-04-13T05:24:34.958Z,136
2018-04-13T05:25:15.612Z,140
2018-04-13T05:25:56.128Z,144
2018-04-13T05:26:36.676Z,148
2018-04-13T05:27:17.208Z,152
2018-04-13T05:27:57.713Z,156
2018-04-13T05:28:38.227Z,160
2018-04-13T05:29:18.765Z,164
2018-04-13T05:29:59.286Z,172
2018-04-13T05:30:39.834Z,172
2018-04-13T05:31:20.342Z,176
2018-04-13T05:32:00.872Z,176
2018-04-13T05:32:41.421Z,184
2018-04-13T05:33:21.941Z,188
2018-04-13T05:34:02.456Z,196
2018-04-13T05:34:42.971Z,196
2018-04-13T05:35:23.514Z,204
2018-04-13T05:36:04.023Z,200
2018-04-13T05:36:44.556Z,208
2018-04-13T05:37:25.106Z,212
2018-04-13T05:38:05.628Z,220
2018-04-13T05:38:46.209Z,224
2018-04-13T05:39:26.888Z,232
2018-04-13T05:40:07.325Z,228
2018-04-13T05:40:47.844Z,236
2018-04-13T05:41:28.356Z,240
2018-04-13T05:42:08.867Z,248
2018-04-13T05:42:49.593Z,252
2018-04-13T05:43:30.145Z,248
2018-04-13T05:44:10.673Z,260
2018-04-13T05:44:51.188Z,260
2018-04-13T05:45:31.706Z,260
2018-04-13T05:46:12.228Z,276
2018-04-13T05:46:52.750Z,268
2018-04-13T05:47:33.271Z,276
2018-04-13T05:48:13.811Z,280
2018-04-13T05:48:54.338Z,284
2018-04-13T05:49:34.881Z,296
2018-04-13T05:50:15.402Z,300
2018-04-13T05:50:56.003Z,300
2018-04-13T05:51:36.538Z,308
2018-04-13T05:52:17.063Z,316
2018-04-13T05:52:57.588Z,312
2018-04-13T05:53:38.123Z,324
2018-04-13T05:54:18.643Z,332
2018-04-13T05:54:59.228Z,348
2018-04-13T05:55:39.762Z,344
2018-04-13T05:58:08.403Z,364
2018-04-13T05:58:48.941Z,364
2018-04-13T05:59:29.471Z,380
2018-04-13T06:00:09.992Z,396
2018-04-13T06:00:50.493Z,428
2018-04-13T06:01:31.015Z,400
2018-04-13T06:02:11.658Z,400
2018-04-13T06:02:52.166Z,408
2018-04-13T06:03:32.669Z,416
2018-04-13T06:04:13.205Z,424
2018-04-13T06:04:53.717Z,436
2018-04-13T06:05:34.236Z,432
2018-04-13T06:06:14.738Z,432
2018-04-13T06:06:55.294Z,444
2018-04-13T06:07:35.807Z,448
2018-04-13T06:08:16.325Z,452
2018-04-13T06:08:56.858Z,464
2018-04-13T06:09:37.397Z,468
2018-04-13T06:10:19.511Z,464
2018-04-13T06:11:00.043Z,476
2018-04-13T06:11:40.566Z,476
2018-04-13T06:12:21.085Z,496
2018-04-13T06:13:01.639Z,508
2018-04-13T06:13:42.132Z,484
2018-04-13T06:14:22.640Z,488
2018-04-13T06:15:03.168Z,488
2018-04-13T06:15:43.689Z,528
2018-04-13T06:16:24.208Z,500
2018-04-13T06:17:04.709Z,492
2018-04-13T06:17:45.225Z,492
2018-04-13T06:18:25.734Z,504
2018-04-13T06:19:06.351Z,512
2018-04-13T06:19:46.854Z,516
2018-04-13T06:20:27.403Z,508
2018-04-13T06:21:07.915Z,516
2018-04-13T06:21:48.421Z,508
2018-04-13T06:22:28.936Z,516
2018-04-13T06:23:09.458Z,500
2018-04-13T06:23:50.048Z,508
2018-04-13T06:24:30.574Z,516
2018-04-13T06:25:11.085Z,504
2018-04-13T06:25:51.716Z,508
2018-04-13T06:26:32.245Z,508
2018-04-13T06:27:12.766Z,528
2018-04-13T06:27:53.302Z,524
2018-04-13T06:28:33.840Z,548
2018-04-13T06:29:14.401Z,532
2018-04-13T06:29:54.942Z,536
2018-04-13T06:30:35.480Z,520
2018-04-13T06:31:15.999Z,540
2018-04-13T06:31:56.514Z,512
2018-04-13T06:32:37.032Z,524
2018-04-13T06:33:17.535Z,512
2018-04-13T06:33:58.042Z,516
2018-04-13T06:34:38.563Z,528
2018-04-13T06:35:19.230Z,516
2018-04-13T06:35:59.720Z,524
2018-04-13T06:36:40.227Z,524
2018-04-13T06:37:20.747Z,544
2018-04-13T06:38:01.236Z,548
2018-04-13T06:38:41.741Z,536
2018-04-13T06:39:22.263Z,568
2018-04-13T06:40:02.769Z,548
2018-04-13T06:40:43.291Z,552
2018-04-13T06:41:23.811Z,568
2018-04-13T06:42:04.328Z,552
2018-04-13T06:42:44.848Z,556
2018-04-13T06:43:25.364Z,556
2018-04-13T06:44:05.880Z,568
2018-04-13T06:44:46.463Z,572
2018-04-13T06:45:26.938Z,568
2018-04-13T06:46:07.503Z,584
2018-04-13T06:46:48.019Z,608
2018-04-13T06:47:28.538Z,596
2018-04-13T06:48:09.060Z,588
2018-04-13T06:48:49.654Z,588
2018-04-13T06:49:30.084Z,576
2018-04-13T06:50:10.609Z,588
2018-04-13T06:50:51.118Z,600
2018-04-13T06:51:31.637Z,596
2018-04-13T06:52:12.160Z,604
2018-04-13T06:52:52.680Z,632
2018-04-13T06:53:33.247Z,596
2018-04-13T06:54:13.757Z,608
2018-04-13T06:54:54.289Z,636
2018-04-13T06:55:34.810Z,632
2018-04-13T06:56:15.331Z,616
2018-04-13T06:56:55.983Z,632
2018-04-13T06:57:36.516Z,664
2018-04-13T06:58:17.060Z,648
2018-04-13T06:58:57.572Z,648
2018-04-13T06:59:38.088Z,640
2018-04-13T07:00:18.645Z,656
2018-04-13T07:02:47.163Z,644
2018-04-13T07:03:27.771Z,624
2018-04-13T07:04:08.303Z,608
2018-04-13T07:04:48.757Z,584
2018-04-13T07:05:29.278Z,580
2018-04-13T07:06:09.807Z,592
2018-04-13T07:06:50.358Z,556
2018-04-13T07:07:30.875Z,552
2018-04-13T07:08:11.395Z,552
2018-04-13T07:08:51.925Z,544
2018-04-13T07:09:32.433Z,556
2018-04-13T07:10:12.961Z,552
2018-04-13T07:10:53.520Z,564
2018-04-13T07:11:34.113Z,552
2018-04-13T07:12:14.632Z,552
2018-04-13T07:12:55.160Z,560
2018-04-13T07:13:35.704Z,556
2018-04-13T07:14:16.217Z,564
2018-04-13T07:14:56.731Z,552
2018-04-13T07:15:37.257Z,580
2018-04-13T07:16:17.773Z,588
2018-04-13T07:16:58.288Z,588
2018-04-13T07:17:38.821Z,576
2018-04-13T07:18:19.345Z,568
2018-04-13T07:18:59.862Z,584
2018-04-13T07:19:40.463Z,580
2018-04-13T07:20:20.993Z,568
2018-04-13T07:21:01.499Z,612
2018-04-13T07:21:42.047Z,604
2018-04-13T07:22:22.562Z,588
2018-04-13T07:23:03.098Z,588
2018-04-13T07:23:43.606Z,580
2018-04-13T07:24:24.108Z,584
2018-04-13T07:25:04.613Z,592
2018-04-13T07:25:45.144Z,608
2018-04-13T07:26:25.922Z,620
2018-04-13T07:27:06.450Z,616
2018-04-13T07:27:46.968Z,600
2018-04-13T07:28:27.474Z,588
2018-04-13T07:29:07.989Z,580
2018-04-13T07:29:48.516Z,580
2018-04-13T07:30:29.034Z,580
2018-04-13T07:31:09.639Z,580
2018-04-13T07:31:50.039Z,584
2018-04-13T07:32:30.552Z,592
2018-04-13T07:33:11.072Z,568
2018-04-13T07:33:51.590Z,544
2018-04-13T07:34:32.096Z,532
2018-04-13T07:35:12.909Z,516
2018-04-13T07:35:53.128Z,492
2018-04-13T07:36:33.647Z,464
2018-04-13T07:37:14.162Z,440
2018-04-13T07:37:54.681Z,428
2018-04-13T07:38:35.203Z,416
2018-04-13T07:39:15.744Z,380
2018-04-13T07:39:56.233Z,360
2018-04-13T07:40:36.769Z,348
2018-04-13T07:41:17.304Z,336
2018-04-13T07:41:57.831Z,324
2018-04-13T07:42:38.353Z,320
2018-04-13T07:43:18.865Z,308
2018-04-13T07:43:59.385Z,312
2018-04-13T07:44:39.958Z,300
2018-04-13T07:45:20.408Z,300
2018-04-13T07:46:00.935Z,324
2018-04-13T07:46:41.624Z,316
2018-04-13T07:47:21.951Z,324
2018-04-13T07:48:02.472Z,336
2018-04-13T07:48:42.998Z,352
2018-04-13T07:49:23.515Z,344
2018-04-13T07:50:04.141Z,336
2018-04-13T07:50:44.616Z,336
2018-04-13T07:51:25.088Z,320
2018-04-13T07:52:05.607Z,312
2018-04-13T07:52:46.096Z,300
2018-04-13T07:53:26.501Z,288
2018-04-13T07:54:07.037Z,280
2018-04-13T07:54:47.498Z,268
2018-04-13T07:55:28.020Z,264
2018-04-13T07:56:08.430Z,256
2018-04-13T07:56:48.966Z,252
2018-04-13T07:57:29.548Z,252
2018-04-13T07:58:10.059Z,256
2018-04-13T07:58:50.539Z,252
2018-04-13T07:59:31.016Z,248
2018-04-13T08:00:11.532Z,248
2018-04-13T08:00:52.038Z,252
2018-04-13T08:01:32.535Z,252
2018-04-13T08:02:13.052Z,260
2018-04-13T08:02:53.588Z,260
2018-04-13T08:03:34.103Z,260
2018-04-13T08:04:14.622Z,260
2018-04-13T08:04:55.138Z,260
2018-04-13T08:05:35.660Z,256
2018-04-13T08:06:16.178Z,256
2018-04-13T08:06:56.698Z,252
2018-04-13T08:07:37.206Z,248
2018-04-13T08:08:17.724Z,244
2018-04-13T08:08:58.250Z,248
2018-04-13T08:09:38.756Z,236
2018-04-13T08:10:19.266Z,236
2018-04-13T08:10:59.784Z,248
2018-04-13T08:11:40.376Z,236
2018-04-13T08:12:20.850Z,236
2018-04-13T08:13:01.293Z,248
2018-04-13T08:13:41.775Z,248
2018-04-13T08:14:22.268Z,244
2018-04-13T08:15:02.784Z,252
2018-04-13T08:15:43.297Z,252
2018-04-13T08:16:23.823Z,264
2018-04-13T08:17:04.333Z,276
2018-04-13T08:17:44.880Z,284
2018-04-13T08:18:25.391Z,272
2018-04-13T08:19:05.937Z,288
2018-04-13T08:19:46.414Z,292
2018-04-13T08:20:26.929Z,296
2018-04-13T08:21:07.449Z,308
2018-04-13T08:21:48.005Z,316
2018-04-13T08:22:28.537Z,312
2018-04-13T08:23:09.053Z,316
2018-04-13T08:23:49.595Z,316
2018-04-13T08:24:30.106Z,324
2018-04-13T08:25:10.635Z,316
2018-04-13T08:25:51.143Z,340
2018-04-13T08:26:31.676Z,332
2018-04-13T08:27:12.186Z,348
2018-04-13T08:27:52.721Z,328
2018-04-13T08:28:33.229Z,336
2018-04-13T08:29:13.723Z,344
2018-04-13T08:29:54.272Z,332
2018-04-13T08:30:34.784Z,332
2018-04-13T08:31:15.295Z,344
2018-04-13T08:31:55.824Z,332
2018-04-13T08:32:36.396Z,344
2018-04-13T08:33:16.915Z,336
2018-04-13T08:33:57.447Z,332
2018-04-13T08:34:37.971Z,328
2018-04-13T08:35:18.483Z,340
2018-04-13T08:35:59.005Z,340
2018-04-13T08:36:39.515Z,344
2018-04-13T08:37:20.064Z,336
2018-04-13T08:38:00.597Z,336
2018-04-13T08:38:41.148Z,344
2018-04-13T08:39:21.619Z,384
2018-04-13T08:40:02.162Z,364
2018-04-13T08:40:42.632Z,372
2018-04-13T08:41:23.141Z,372
2018-04-13T08:42:03.698Z,368
2018-04-13T08:42:44.215Z,380
2018-04-13T08:43:24.842Z,356
2018-04-13T08:44:05.247Z,348
2018-04-13T08:44:45.756Z,324
2018-04-13T08:45:26.281Z,312
2018-04-13T08:46:06.797Z,300
2018-04-13T08:46:47.307Z,308
2018-04-13T08:47:27.824Z,300
2018-04-13T08:48:08.333Z,300
2018-04-13T08:48:48.978Z,304
2018-04-13T08:49:29.384Z,288
2018-04-13T08:50:09.896Z,304
2018-04-13T08:50:50.421Z,300
2018-04-13T08:51:30.978Z,296
2018-04-13T08:52:11.625Z,304
2018-04-13T08:52:52.115Z,304
2018-04-13T08:53:32.643Z,304
2018-04-13T08:54:13.155Z,308
2018-04-13T08:54:53.660Z,296
2018-04-13T08:55:34.174Z,304
2018-04-13T08:56:14.694Z,296
2018-04-13T08:56:55.242Z,296
2018-04-13T08:57:35.743Z,308
2018-04-13T08:58:16.251Z,308
2018-04-13T08:58:56.758Z,312
2018-04-13T08:59:37.275Z,320
2018-04-13T09:00:17.839Z,320
2018-04-13T09:00:58.433Z,332
2018-04-13T09:01:38.913Z,336
2018-04-13T09:02:19.432Z,328
2018-04-13T09:02:59.948Z,324
2018-04-13T09:03:40.468Z,324
2018-04-13T09:04:21.024Z,324
2018-04-13T09:05:01.646Z,324
2018-04-13T09:05:42.172Z,320
2018-04-13T09:06:22.709Z,332
2018-04-13T09:07:03.202Z,308
2018-04-13T09:07:43.719Z,316
2018-04-13T09:08:24.243Z,320
2018-04-13T09:09:04.756Z,328
2018-04-13T09:09:45.328Z,316
2018-04-13T09:10:26.057Z,320
2018-04-13T09:11:06.570Z,308
2018-04-13T09:11:47.089Z,316
2018-04-13T09:12:27.618Z,304
2018-04-13T09:13:08.208Z,312
2018-04-13T09:13:48.859Z,304
2018-04-13T09:14:29.382Z,300
2018-04-13T09:15:09.913Z,312
2018-04-13T09:15:50.518Z,308
2018-04-13T09:16:31.128Z,332
2018-04-13T09:17:11.710Z,324
2018-04-13T09:17:52.262Z,320
2018-04-13T09:18:32.775Z,332
2018-04-13T09:19:13.272Z,344
2018-04-13T09:19:53.824Z,340
2018-04-13T09:20:34.305Z,340
2018-04-13T09:21:15.017Z,364
2018-04-13T09:21:55.656Z,368
2018-04-13T09:22:36.175Z,400
2018-04-13T09:23:16.729Z,396
2018-04-13T09:23:57.248Z,416
2018-04-13T09:24:37.764Z,412
2018-04-13T09:25:18.295Z,416
2018-04-13T09:25:58.889Z,440
2018-04-13T09:26:39.413Z,448
2018-04-13T09:27:19.937Z,448
2018-04-13T09:28:00.445Z,456
2018-04-13T09:28:40.950Z,456
2018-04-13T09:29:21.490Z,468
2018-04-13T09:30:02.077Z,452
2018-04-13T09:30:42.598Z,444
2018-04-13T09:31:23.111Z,448
2018-04-13T09:32:03.639Z,440
2018-04-13T09:32:44.166Z,428
2018-04-13T09:33:24.673Z,456
2018-04-13T09:34:05.187Z,436
2018-04-13T09:34:45.705Z,444
2018-04-13T09:35:26.240Z,432
2018-04-13T09:36:06.786Z,444
2018-04-13T09:36:47.296Z,436
2018-04-13T09:37:27.883Z,424
2018-04-13T09:38:08.363Z,436
2018-04-13T09:38:48.912Z,432
2018-04-13T09:39:29.423Z,460
2018-04-13T09:40:10.066Z,468
2018-04-13T09:40:50.443Z,472
2018-04-13T09:41:30.959Z,504
2018-04-13T09:42:11.493Z,488